createdAt,value
2019-01-09T00:00:47.100Z,6.46
2019-01-09T00:03:16.481Z,6.46
2019-01-09T00:05:45.811Z,6.44
2019-01-09T00:08:15.149Z,6.43
2019-01-09T00:10:44.603Z,6.42
2019-01-09T00:13:13.953Z,6.42
2019-01-09T00:15:43.299Z,6.41
2019-01-09T00:18:12.638Z,6.40
2019-01-09T00:20:42.010Z,6.39
2019-01-09T00:23:11.349Z,6.38
2019-01-09T00:25:40.715Z,6.39
2019-01-09T00:28:10.057Z,6.37
2019-01-09T00:30:39.425Z,6.38
2019-01-09T00:33:08.898Z,6.39
2019-01-09T00:35:38.244Z,6.42
2019-01-09T00:38:07.590Z,6.43
2019-01-09T00:40:36.957Z,6.46
2019-01-09T00:43:06.333Z,6.51
2019-01-09T00:45:35.671Z,6.55
2019-01-09T00:48:05.148Z,6.58
2019-01-09T00:50:34.505Z,6.63
2019-01-09T00:53:03.844Z,6.67
2019-01-09T00:55:33.238Z,6.72
2019-01-09T00:58:02.817Z,6.77
2019-01-09T01:00:32.189Z,6.82
2019-01-09T01:03:18.494Z,6.86
2019-01-09T01:06:34.467Z,6.89
2019-01-09T01:09:53.830Z,6.93
2019-01-09T01:12:50.507Z,6.96
2019-01-09T01:16:12.272Z,6.98
2019-01-09T01:19:25.307Z,7.02
2019-01-09T01:22:00.296Z,7.03
2019-01-09T01:25:02.912Z,7.05
2019-01-09T01:27:55.106Z,7.08
2019-01-09T01:31:03.221Z,7.07
2019-01-09T01:34:18.743Z,7.08
2019-01-09T01:37:31.909Z,7.08
2019-01-09T01:40:47.530Z,7.09
2019-01-09T01:43:28.454Z,7.08
2019-01-09T01:46:37.055Z,7.06
2019-01-09T01:49:35.765Z,7.04
2019-01-09T01:52:58.396Z,7.01
2019-01-09T01:56:04.185Z,6.97
2019-01-09T01:59:20.413Z,6.94
2019-01-09T02:02:19.770Z,6.93
2019-01-09T02:05:27.189Z,6.88
2019-01-09T02:08:23.596Z,6.85
2019-01-09T02:11:30.298Z,6.82
2019-01-09T02:14:40.538Z,6.80
2019-01-09T02:17:41.796Z,6.77
2019-01-09T02:20:46.585Z,6.73
2019-01-09T02:24:01.116Z,6.69
2019-01-09T02:27:04.171Z,6.66
2019-01-09T02:30:02.723Z,6.59
2019-01-09T02:32:33.000Z,6.53
2019-01-09T02:35:02.441Z,6.48
2019-01-09T02:37:31.831Z,6.40
2019-01-09T02:40:01.195Z,6.35
2019-01-09T02:42:30.549Z,6.30
2019-01-09T02:44:59.933Z,6.26
2019-01-09T02:47:29.295Z,6.20
2019-01-09T02:49:58.801Z,6.15
2019-01-09T02:52:28.183Z,6.11
2019-01-09T02:54:57.516Z,6.07
2019-01-09T02:57:26.887Z,6.05
2019-01-09T02:59:56.265Z,6.03
2019-01-09T03:02:25.614Z,5.99
2019-01-09T03:04:54.973Z,5.95
2019-01-09T03:07:26.378Z,5.91
2019-01-09T03:09:55.743Z,5.86
2019-01-09T03:12:25.079Z,5.83
2019-01-09T03:14:54.653Z,5.81
2019-01-09T03:17:24.005Z,5.74
2019-01-09T03:19:53.344Z,5.71
2019-01-09T03:22:22.704Z,5.69
2019-01-09T03:24:52.060Z,5.67
2019-01-09T03:27:21.394Z,5.64
2019-01-09T03:29:50.739Z,5.64
2019-01-09T03:32:20.092Z,5.63
2019-01-09T03:34:49.452Z,5.64
2019-01-09T03:37:18.821Z,5.64
2019-01-09T03:39:48.204Z,5.64
2019-01-09T03:42:17.654Z,5.64
2019-01-09T03:44:46.992Z,5.63
2019-01-09T03:47:16.383Z,5.62
2019-01-09T03:49:45.726Z,5.59
2019-01-09T03:52:15.094Z,5.56
2019-01-09T03:54:44.490Z,5.50
2019-01-09T03:57:13.834Z,5.47
2019-01-09T03:59:43.175Z,5.42
2019-01-09T04:02:12.534Z,5.38
2019-01-09T04:04:41.883Z,5.35
2019-01-09T04:07:11.246Z,5.33
2019-01-09T04:09:40.614Z,5.30
2019-01-09T04:12:09.994Z,5.27
2019-01-09T04:14:39.338Z,5.25
2019-01-09T04:17:08.681Z,5.24
2019-01-09T04:19:38.057Z,5.21
2019-01-09T04:22:07.401Z,5.21
2019-01-09T04:24:36.764Z,5.19
2019-01-09T04:27:06.108Z,5.19
2019-01-09T04:29:35.462Z,5.18
2019-01-09T04:32:04.807Z,5.18
2019-01-09T04:34:34.161Z,5.17
2019-01-09T04:37:03.522Z,5.17
2019-01-09T04:39:32.881Z,5.17
2019-01-09T04:42:02.236Z,5.17
2019-01-09T04:44:31.574Z,5.17
2019-01-09T04:47:00.929Z,5.18
2019-01-09T04:49:30.273Z,5.18
2019-01-09T04:51:59.688Z,5.17
2019-01-09T04:54:29.071Z,5.17
2019-01-09T04:56:58.450Z,5.17
2019-01-09T04:59:27.855Z,5.18
2019-01-09T05:01:57.199Z,5.18
2019-01-09T05:04:26.525Z,5.17
2019-01-09T05:07:00.544Z,5.18
2019-01-09T05:09:26.975Z,5.18
2019-01-09T05:11:56.311Z,5.21
2019-01-09T05:14:25.667Z,5.23
2019-01-09T05:16:55.056Z,5.26
2019-01-09T05:19:24.415Z,5.29
2019-01-09T05:21:53.787Z,5.32
2019-01-09T05:24:23.130Z,5.35
2019-01-09T05:26:52.547Z,5.39
2019-01-09T05:29:21.916Z,5.43
2019-01-09T05:31:51.283Z,5.47
2019-01-09T05:34:20.629Z,5.49
2019-01-09T05:36:49.985Z,5.54
2019-01-09T05:39:19.346Z,5.58
2019-01-09T05:41:48.707Z,5.62
2019-01-09T05:44:18.075Z,5.65
2019-01-09T05:46:47.421Z,5.68
2019-01-09T05:49:16.776Z,5.73
2019-01-09T05:51:46.144Z,5.79
2019-01-09T05:54:15.505Z,5.83
2019-01-09T05:56:44.863Z,5.88
2019-01-09T05:59:14.215Z,5.92
2019-01-09T06:01:43.575Z,5.97
2019-01-09T06:04:12.911Z,6.04
2019-01-09T06:06:42.260Z,6.06
2019-01-09T06:09:11.625Z,6.10
2019-01-09T06:11:40.972Z,6.14
2019-01-09T06:14:10.291Z,6.18
2019-01-09T06:16:39.635Z,6.21
2019-01-09T06:19:08.994Z,6.24
2019-01-09T06:21:38.328Z,6.27
2019-01-09T06:24:07.715Z,6.29
2019-01-09T06:26:37.083Z,6.32
2019-01-09T06:29:06.429Z,6.33
2019-01-09T06:31:35.817Z,6.34
2019-01-09T06:34:05.190Z,6.36
2019-01-09T06:36:34.604Z,6.38
2019-01-09T06:39:04.644Z,6.40
2019-01-09T06:41:33.979Z,6.42
2019-01-09T06:44:03.362Z,6.44
2019-01-09T06:46:32.705Z,6.44
2019-01-09T06:49:02.079Z,6.43
2019-01-09T06:51:31.439Z,6.43
2019-01-09T06:54:00.819Z,6.43
2019-01-09T06:56:30.154Z,6.43
2019-01-09T06:58:59.513Z,6.41
2019-01-09T07:01:28.872Z,6.43
2019-01-09T07:03:58.226Z,6.42
2019-01-09T07:06:27.598Z,6.41
2019-01-09T07:08:56.956Z,6.39
2019-01-09T07:11:26.356Z,6.38
2019-01-09T07:13:55.706Z,6.36
2019-01-09T07:16:25.033Z,6.36
2019-01-09T07:18:54.408Z,6.33
2019-01-09T07:21:23.746Z,6.33
2019-01-09T07:23:53.098Z,6.30
2019-01-09T07:26:22.431Z,6.27
2019-01-09T07:28:51.819Z,6.23
2019-01-09T07:31:21.259Z,6.18
2019-01-09T07:33:50.604Z,6.12
2019-01-09T07:36:19.960Z,6.08
2019-01-09T07:38:49.320Z,6.04
2019-01-09T07:41:18.674Z,5.99
2019-01-09T07:43:48.033Z,5.95
2019-01-09T07:46:17.456Z,5.91
2019-01-09T07:48:46.819Z,5.86
2019-01-09T07:51:16.176Z,5.82
2019-01-09T07:53:45.547Z,5.77
2019-01-09T07:56:14.904Z,5.72
2019-01-09T07:58:44.248Z,5.68
2019-01-09T08:01:13.604Z,5.64
2019-01-09T08:03:42.933Z,5.60
2019-01-09T08:06:12.304Z,5.55
2019-01-09T08:08:41.652Z,5.51
2019-01-09T08:11:11.004Z,5.48
2019-01-09T08:13:40.365Z,5.46
2019-01-09T08:16:09.694Z,5.41
2019-01-09T08:18:39.054Z,5.39
2019-01-09T08:21:08.419Z,5.36
2019-01-09T08:23:37.800Z,5.34
2019-01-09T08:26:07.157Z,5.31
2019-01-09T08:28:36.521Z,5.29
2019-01-09T08:31:05.860Z,5.26
2019-01-09T08:33:35.212Z,5.22
2019-01-09T08:36:04.561Z,5.20
2019-01-09T08:38:33.929Z,5.16
2019-01-09T08:41:03.312Z,5.15
2019-01-09T08:43:32.677Z,5.12
2019-01-09T08:46:02.044Z,5.09
2019-01-09T08:48:31.395Z,5.07
2019-01-09T08:51:01.362Z,5.06
2019-01-09T08:53:30.694Z,5.05
2019-01-09T08:56:00.108Z,5.03
2019-01-09T08:58:29.512Z,5.02
2019-01-09T09:00:58.882Z,5.01
2019-01-09T09:03:28.251Z,4.99
2019-01-09T09:05:57.599Z,4.99
2019-01-09T09:08:28.303Z,4.98
2019-01-09T09:10:57.655Z,4.99
2019-01-09T09:13:38.300Z,5.00
2019-01-09T09:16:09.214Z,5.00
2019-01-09T09:18:38.588Z,5.01
2019-01-09T09:21:07.942Z,5.01
2019-01-09T09:23:37.299Z,5.00
2019-01-09T09:26:06.895Z,5.01
2019-01-09T09:28:36.264Z,5.00
2019-01-09T09:31:05.865Z,5.01
2019-01-09T09:33:35.234Z,5.03
2019-01-09T09:36:04.720Z,5.05
2019-01-09T09:38:34.099Z,5.08
2019-01-09T09:41:03.463Z,5.10
2019-01-09T09:43:32.817Z,5.13
2019-01-09T09:46:02.189Z,5.15
2019-01-09T09:48:31.591Z,5.18
2019-01-09T09:51:00.960Z,5.21
2019-01-09T09:53:30.328Z,5.23
2019-01-09T09:55:59.747Z,5.26
2019-01-09T09:58:29.150Z,5.29
2019-01-09T10:00:58.499Z,5.32
2019-01-09T10:03:27.879Z,5.34
2019-01-09T10:05:57.222Z,5.39
2019-01-09T10:08:29.572Z,5.43
2019-01-09T10:10:57.759Z,5.45
2019-01-09T10:13:27.189Z,5.49
2019-01-09T10:15:56.554Z,5.54
2019-01-09T10:18:25.909Z,5.57
2019-01-09T10:20:55.294Z,5.61
2019-01-09T10:23:24.652Z,5.65
2019-01-09T10:25:54.020Z,5.70
2019-01-09T10:28:23.375Z,5.73
2019-01-09T10:30:52.746Z,5.76
2019-01-09T10:33:22.146Z,5.80
2019-01-09T10:35:51.505Z,5.84
2019-01-09T10:38:20.856Z,5.86
2019-01-09T10:40:50.229Z,5.90
2019-01-09T10:43:19.569Z,5.93
2019-01-09T10:45:48.910Z,5.97
2019-01-09T10:48:18.278Z,6.00
2019-01-09T10:50:49.075Z,6.04
2019-01-09T10:53:18.450Z,6.07
2019-01-09T10:55:47.858Z,6.12
2019-01-09T10:58:17.217Z,6.16
2019-01-09T11:00:46.559Z,6.20
2019-01-09T11:03:15.925Z,6.25
2019-01-09T11:05:45.265Z,6.28
2019-01-09T11:08:14.625Z,6.31
2019-01-09T11:10:43.975Z,6.35
2019-01-09T11:13:13.314Z,6.39
2019-01-09T11:15:42.685Z,6.42
2019-01-09T11:18:12.057Z,6.46
2019-01-09T11:20:41.408Z,6.49
2019-01-09T11:23:10.838Z,6.51
2019-01-09T11:25:40.189Z,6.54
2019-01-09T11:28:09.543Z,6.56
2019-01-09T11:30:38.915Z,6.59
2019-01-09T11:33:08.265Z,6.63
2019-01-09T11:35:37.598Z,6.67
2019-01-09T11:38:06.978Z,6.70
2019-01-09T11:40:36.341Z,6.73
2019-01-09T11:43:05.681Z,6.77
2019-01-09T11:45:35.051Z,6.80
2019-01-09T11:48:04.535Z,6.83
2019-01-09T11:50:33.952Z,6.84
2019-01-09T11:53:03.308Z,6.88
2019-01-09T11:55:32.671Z,6.91
2019-01-09T11:58:28.827Z,6.94
2019-01-09T12:00:58.342Z,6.95
2019-01-09T12:03:27.810Z,6.99
2019-01-09T12:05:57.146Z,7.00
2019-01-09T12:08:26.778Z,7.02
2019-01-09T12:10:57.514Z,7.04
2019-01-09T12:13:28.132Z,7.04
2019-01-09T12:15:57.485Z,7.07
2019-01-09T12:18:26.844Z,7.09
2019-01-09T12:20:56.207Z,7.10
2019-01-09T12:23:25.545Z,7.11
2019-01-09T12:25:54.883Z,7.11
2019-01-09T12:28:24.251Z,7.12
2019-01-09T12:30:55.058Z,7.12
2019-01-09T12:33:25.806Z,7.12
2019-01-09T12:35:55.159Z,7.14
2019-01-09T12:38:24.552Z,7.14
2019-01-09T12:40:54.018Z,7.14
2019-01-09T12:43:23.380Z,7.15
2019-01-09T12:45:52.842Z,7.15
2019-01-09T12:48:22.254Z,7.15
2019-01-09T12:50:51.593Z,7.15
2019-01-09T12:53:20.958Z,7.15
2019-01-09T12:55:50.298Z,7.15
2019-01-09T12:58:19.831Z,7.16
2019-01-09T13:00:49.187Z,7.15
2019-01-09T13:03:18.551Z,7.16
2019-01-09T13:05:47.962Z,7.15
2019-01-09T13:08:17.324Z,7.16
2019-01-09T13:10:46.704Z,7.17
2019-01-09T13:13:16.183Z,7.17
2019-01-09T13:15:46.536Z,7.19
2019-01-09T13:18:15.869Z,7.20
2019-01-09T13:20:48.336Z,7.23
2019-01-09T13:23:17.993Z,7.25
2019-01-09T13:25:47.353Z,7.29
2019-01-09T13:28:18.417Z,7.33
2019-01-09T13:30:47.988Z,7.38
2019-01-09T13:33:17.325Z,7.41
2019-01-09T13:35:47.829Z,7.44
2019-01-09T13:38:17.214Z,7.49
2019-01-09T13:40:47.732Z,7.55
2019-01-09T13:43:18.276Z,7.60
2019-01-09T13:45:49.452Z,7.66
2019-01-09T13:48:18.795Z,7.73
2019-01-09T13:51:09.583Z,7.79
2019-01-09T13:53:39.079Z,7.84
2019-01-09T13:56:12.032Z,7.87
2019-01-09T13:58:41.520Z,7.89
2019-01-09T14:01:12.310Z,7.89
2019-01-09T14:03:41.768Z,7.90
2019-01-09T14:06:11.177Z,7.90
2019-01-09T14:08:40.544Z,7.88
2019-01-09T14:11:09.905Z,7.87
2019-01-09T14:13:39.241Z,7.85
2019-01-09T14:16:08.610Z,7.85
2019-01-09T14:18:37.952Z,7.85
2019-01-09T14:21:08.413Z,7.85
2019-01-09T14:23:37.848Z,7.85
2019-01-09T14:26:07.456Z,7.85
2019-01-09T14:28:36.793Z,7.86
2019-01-09T14:31:07.718Z,7.88
2019-01-09T14:33:38.089Z,7.89
2019-01-09T14:36:08.458Z,7.90
2019-01-09T14:38:39.000Z,7.89
2019-01-09T14:41:11.284Z,7.89
2019-01-09T14:43:40.640Z,7.89
2019-01-09T14:46:10.074Z,7.88
2019-01-09T14:48:39.434Z,7.87
2019-01-09T14:51:08.769Z,7.85
2019-01-09T14:53:38.146Z,7.84
2019-01-09T14:56:07.523Z,7.83
2019-01-09T14:58:36.876Z,7.80
2019-01-09T15:01:06.304Z,7.79
2019-01-09T15:03:35.740Z,7.76
2019-01-09T15:06:05.207Z,7.73
2019-01-09T15:08:34.523Z,7.72
2019-01-09T15:11:03.885Z,7.70
2019-01-09T15:13:33.226Z,7.68
2019-01-09T15:16:02.679Z,7.67
2019-01-09T15:18:31.974Z,7.64
2019-01-09T15:21:01.341Z,7.62
2019-01-09T15:23:30.768Z,7.58
2019-01-09T15:26:00.086Z,7.54
2019-01-09T15:28:29.445Z,7.51
2019-01-09T15:30:58.806Z,7.50
2019-01-09T15:33:28.168Z,7.47
2019-01-09T15:35:57.490Z,7.44
2019-01-09T15:38:26.843Z,7.42
2019-01-09T15:40:56.230Z,7.41
2019-01-09T15:43:25.553Z,7.38
2019-01-09T15:45:54.924Z,7.36
2019-01-09T15:48:24.283Z,7.34
2019-01-09T15:50:53.690Z,7.31
2019-01-09T15:53:23.025Z,7.27
2019-01-09T15:55:52.440Z,7.23
2019-01-09T15:58:21.798Z,7.18
2019-01-09T16:00:54.370Z,7.14
2019-01-09T16:03:26.315Z,7.10
2019-01-09T16:05:55.883Z,7.05
2019-01-09T16:08:25.256Z,7.01
2019-01-09T16:10:54.599Z,6.97
2019-01-09T16:13:24.050Z,6.92
2019-01-09T16:15:53.385Z,6.88
2019-01-09T16:18:23.226Z,6.82
2019-01-09T16:20:52.761Z,6.75
2019-01-09T16:23:22.196Z,6.70
2019-01-09T16:25:51.593Z,6.64
2019-01-09T16:28:20.959Z,6.58
2019-01-09T16:31:23.349Z,6.53
2019-01-09T16:33:52.715Z,6.46
2019-01-09T16:36:22.088Z,6.39
2019-01-09T16:38:51.422Z,6.32
2019-01-09T16:41:20.776Z,6.26
2019-01-09T16:43:50.148Z,6.20
2019-01-09T16:46:19.970Z,6.14
2019-01-09T16:48:49.419Z,6.07
2019-01-09T16:51:18.772Z,6.01
2019-01-09T16:53:48.180Z,5.94
2019-01-09T16:56:17.651Z,5.88
2019-01-09T16:58:46.986Z,5.81
2019-01-09T17:01:16.488Z,5.74
2019-01-09T17:03:45.956Z,5.70
2019-01-09T17:06:15.303Z,5.65
2019-01-09T17:08:44.655Z,5.62
2019-01-09T17:11:14.398Z,5.55
2019-01-09T17:13:43.763Z,5.49
2019-01-09T17:16:13.125Z,5.43
2019-01-09T17:18:42.485Z,5.36
2019-01-09T17:21:12.027Z,5.31
2019-01-09T17:23:41.650Z,5.26
2019-01-09T17:26:11.188Z,5.22
2019-01-09T17:28:40.559Z,5.15
2019-01-09T17:31:10.022Z,5.09
2019-01-09T17:33:39.363Z,5.06
2019-01-09T17:36:08.795Z,5.00
2019-01-09T17:38:38.159Z,4.98
2019-01-09T17:41:07.611Z,4.93
2019-01-09T17:43:36.983Z,4.92
2019-01-09T17:46:06.417Z,4.89
2019-01-09T17:48:35.817Z,4.86
2019-01-09T17:51:05.281Z,4.81
2019-01-09T17:53:34.646Z,4.76
2019-01-09T17:56:04.054Z,4.69
2019-01-09T17:58:33.674Z,4.63
2019-01-09T18:01:03.029Z,4.59
2019-01-09T18:03:32.391Z,4.54
2019-01-09T18:06:01.746Z,4.49
2019-01-09T18:08:31.207Z,4.45
2019-01-09T18:11:00.561Z,4.44
2019-01-09T18:13:29.949Z,4.42
2019-01-09T18:15:59.290Z,4.37
2019-01-09T18:18:28.657Z,4.34
2019-01-09T18:20:58.059Z,4.31
2019-01-09T18:23:27.393Z,4.26
2019-01-09T18:25:56.793Z,4.24
2019-01-09T18:28:26.153Z,4.20
2019-01-09T18:31:20.911Z,4.16
2019-01-09T18:34:01.981Z,4.12
2019-01-09T18:36:59.178Z,4.10
2019-01-09T18:40:09.376Z,4.07
2019-01-09T18:43:21.472Z,4.02
2019-01-09T18:46:42.253Z,3.97
2019-01-09T18:49:53.077Z,3.93
2019-01-09T18:52:31.266Z,3.88
2019-01-09T18:55:00.768Z,3.84
2019-01-09T18:57:30.343Z,3.80
2019-01-09T18:59:59.827Z,3.79
2019-01-09T19:02:29.190Z,3.74
2019-01-09T19:04:58.585Z,3.71
2019-01-09T19:07:27.949Z,3.67
2019-01-09T19:09:57.346Z,3.64
2019-01-09T19:12:26.723Z,3.59
2019-01-09T19:14:57.500Z,3.54
2019-01-09T19:17:26.854Z,3.51
2019-01-09T19:19:57.289Z,3.49
2019-01-09T19:22:26.680Z,3.46
2019-01-09T19:24:57.505Z,3.47
2019-01-09T19:27:26.877Z,3.49
2019-01-09T19:29:56.272Z,3.51
2019-01-09T19:32:25.664Z,3.50
2019-01-09T19:34:55.047Z,3.49
2019-01-09T19:37:24.454Z,3.48
2019-01-09T19:39:53.994Z,3.48
2019-01-09T19:42:27.631Z,3.46
2019-01-09T19:44:57.028Z,3.44
2019-01-09T19:47:26.430Z,3.43
2019-01-09T19:49:55.905Z,3.39
2019-01-09T19:52:25.301Z,3.32
2019-01-09T19:54:54.707Z,3.29
2019-01-09T19:57:24.229Z,3.28
2019-01-09T19:59:53.603Z,3.27
2019-01-09T20:02:22.988Z,3.27
2019-01-09T20:04:52.458Z,3.26
2019-01-09T20:07:22.924Z,3.23
2019-01-09T20:09:52.295Z,3.23
2019-01-09T20:12:21.758Z,3.19
2019-01-09T20:14:51.361Z,3.14
2019-01-09T20:17:20.739Z,3.11
2019-01-09T20:19:50.197Z,3.09
2019-01-09T20:22:19.791Z,3.06
2019-01-09T20:24:49.311Z,3.07
2019-01-09T20:27:20.565Z,3.06
2019-01-09T20:29:50.071Z,3.03
2019-01-09T20:32:19.654Z,3.03
2019-01-09T20:34:49.236Z,3.00
2019-01-09T20:37:18.668Z,2.99
2019-01-09T20:39:48.037Z,2.97
2019-01-09T20:42:17.458Z,2.96
2019-01-09T20:44:54.264Z,2.93
2019-01-09T20:47:28.220Z,2.92
2019-01-09T20:49:58.580Z,2.90
2019-01-09T20:52:32.209Z,2.89
2019-01-09T20:55:01.759Z,2.86
2019-01-09T20:57:31.241Z,2.83
2019-01-09T21:00:00.735Z,2.80
2019-01-09T21:02:30.141Z,2.78
2019-01-09T21:04:59.690Z,2.76
2019-01-09T21:07:29.118Z,2.74
2019-01-09T21:09:58.653Z,2.74
2019-01-09T21:12:28.025Z,2.72
2019-01-09T21:14:57.403Z,2.68
2019-01-09T21:17:26.830Z,2.66
2019-01-09T21:19:56.186Z,2.65
2019-01-09T21:22:25.878Z,2.64
2019-01-09T21:24:55.288Z,2.63
2019-01-09T21:27:25.996Z,2.61
2019-01-09T21:29:55.772Z,2.59
2019-01-09T21:32:25.185Z,2.56
2019-01-09T21:34:54.586Z,2.54
2019-01-09T21:37:24.053Z,2.51
2019-01-09T21:39:53.773Z,2.50
2019-01-09T21:42:23.166Z,2.48
2019-01-09T21:44:52.741Z,2.46
2019-01-09T21:47:22.164Z,2.45
2019-01-09T21:49:51.548Z,2.43
2019-01-09T21:52:21.039Z,2.40
2019-01-09T21:54:50.465Z,2.39
2019-01-09T21:57:19.889Z,2.37
2019-01-09T21:59:49.541Z,2.34
2019-01-09T22:02:19.172Z,2.30
2019-01-09T22:04:48.553Z,2.25
2019-01-09T22:07:19.401Z,2.25
2019-01-09T22:09:48.773Z,2.24
2019-01-09T22:12:20.129Z,2.20
2019-01-09T22:14:49.527Z,2.19
2019-01-09T22:17:19.218Z,2.16
2019-01-09T22:19:48.616Z,2.13
2019-01-09T22:22:18.354Z,2.13
2019-01-09T22:24:47.829Z,2.13
2019-01-09T22:27:17.164Z,2.13
2019-01-09T22:29:46.654Z,2.10
2019-01-09T22:32:17.663Z,2.10
2019-01-09T22:34:47.276Z,2.09
2019-01-09T22:37:16.639Z,2.09
2019-01-09T22:39:47.064Z,2.07
2019-01-09T22:42:16.421Z,2.07
2019-01-09T22:44:45.782Z,2.04
2019-01-09T22:47:15.183Z,2.03
2019-01-09T22:49:44.604Z,2.01
2019-01-09T22:52:13.958Z,2.00
2019-01-09T22:54:43.389Z,1.98
2019-01-09T22:57:12.742Z,1.97
2019-01-09T22:59:42.157Z,1.97
2019-01-09T23:02:13.877Z,1.96
2019-01-09T23:04:44.254Z,1.94
2019-01-09T23:07:13.623Z,1.92
2019-01-09T23:09:43.013Z,1.94
2019-01-09T23:12:20.822Z,1.93
2019-01-09T23:14:43.610Z,1.91
2019-01-09T23:17:12.964Z,1.91
2019-01-09T23:19:44.757Z,1.90
2019-01-09T23:22:14.238Z,1.89
2019-01-09T23:24:43.629Z,1.86
2019-01-09T23:27:12.978Z,1.85
2019-01-09T23:29:42.466Z,1.85
2019-01-09T23:32:11.834Z,1.82
2019-01-09T23:34:41.176Z,1.80
2019-01-09T23:37:10.543Z,1.79
2019-01-09T23:39:39.909Z,1.77
2019-01-09T23:42:09.249Z,1.76
2019-01-09T23:44:38.724Z,1.72
2019-01-09T23:47:08.076Z,1.68
2019-01-09T23:49:39.941Z,1.66
2019-01-09T23:52:09.280Z,1.63
2019-01-09T23:54:38.625Z,1.61
2019-01-09T23:57:07.991Z,1.63
2019-01-09T23:59:37.381Z,1.64
